sensor_id;sensor_type;location;lat;lon;timestamp;P1;durP1;ratioP1;P2;durP2;ratioP2
52102;SDS011;38101;53.126;6.878;2023-06-14T00:01:02;2.60;;;1.88;;
52102;SDS011;38101;53.126;6.878;2023-06-14T00:03:31;3.85;;;1.92;;
52102;SDS011;38101;53.126;6.878;2023-06-14T00:05:57;3.90;;;1.95;;
52102;SDS011;38101;53.126;6.878;2023-06-14T00:08:23;2.42;;;1.77;;
52102;SDS011;38101;53.126;6.878;2023-06-14T00:10:50;2.35;;;1.70;;
52102;SDS011;38101;53.126;6.878;2023-06-14T00:13:16;3.58;;;1.90;;
52102;SDS011;38101;53.126;6.878;2023-06-14T00:15:41;4.60;;;2.10;;
52102;SDS011;38101;53.126;6.878;2023-06-14T00:18:07;2.70;;;1.90;;
52102;SDS011;38101;53.126;6.878;2023-06-14T00:20:34;3.42;;;1.95;;
52102;SDS011;38101;53.126;6.878;2023-06-14T00:23:00;3.47;;;2.00;;
52102;SDS011;38101;53.126;6.878;2023-06-14T00:25:26;3.40;;;2.10;;
52102;SDS011;38101;53.126;6.878;2023-06-14T00:27:52;3.85;;;2.33;;
52102;SDS011;38101;53.126;6.878;2023-06-14T00:30:18;4.68;;;1.90;;
52102;SDS011;38101;53.126;6.878;2023-06-14T00:32:45;2.95;;;1.90;;
52102;SDS011;38101;53.126;6.878;2023-06-14T00:35:11;2.65;;;1.65;;
52102;SDS011;38101;53.126;6.878;2023-06-14T00:37:37;3.72;;;1.98;;
52102;SDS011;38101;53.126;6.878;2023-06-14T00:40:04;3.60;;;1.98;;
52102;SDS011;38101;53.126;6.878;2023-06-14T00:42:30;5.00;;;2.00;;
52102;SDS011;38101;53.126;6.878;2023-06-14T00:44:56;3.50;;;1.80;;
52102;SDS011;38101;53.126;6.878;2023-06-14T00:47:22;3.30;;;1.90;;
52102;SDS011;38101;53.126;6.878;2023-06-14T00:49:52;2.33;;;1.73;;
52102;SDS011;38101;53.126;6.878;2023-06-14T00:52:20;3.25;;;2.15;;
52102;SDS011;38101;53.126;6.878;2023-06-14T00:54:47;2.88;;;1.85;;
52102;SDS011;38101;53.126;6.878;2023-06-14T00:57:13;4.07;;;1.85;;
52102;SDS011;38101;53.126;6.878;2023-06-14T00:59:42;3.10;;;1.95;;
52102;SDS011;38101;53.126;6.878;2023-06-14T01:02:09;2.92;;;1.90;;
52102;SDS011;38101;53.126;6.878;2023-06-14T01:04:36;3.08;;;1.67;;
52102;SDS011;38101;53.126;6.878;2023-06-14T01:09:47;4.57;;;1.83;;
52102;SDS011;38101;53.126;6.878;2023-06-14T01:12:40;2.97;;;1.95;;
52102;SDS011;38101;53.126;6.878;2023-06-14T01:15:16;2.92;;;1.88;;
52102;SDS011;38101;53.126;6.878;2023-06-14T01:17:43;3.10;;;1.60;;
52102;SDS011;38101;53.126;6.878;2023-06-14T01:20:11;3.83;;;1.83;;
52102;SDS011;38101;53.126;6.878;2023-06-14T01:22:50;3.67;;;2.08;;
52102;SDS011;38101;53.126;6.878;2023-06-14T01:25:22;2.13;;;1.73;;
52102;SDS011;38101;53.126;6.878;2023-06-14T01:27:49;4.53;;;2.05;;
52102;SDS011;38101;53.126;6.878;2023-06-14T01:30:16;2.80;;;1.73;;
52102;SDS011;38101;53.126;6.878;2023-06-14T01:32:43;2.35;;;1.80;;
52102;SDS011;38101;53.126;6.878;2023-06-14T01:35:09;3.00;;;1.90;;
52102;SDS011;38101;53.126;6.878;2023-06-14T01:37:35;3.40;;;2.10;;
52102;SDS011;38101;53.126;6.878;2023-06-14T01:40:02;3.78;;;1.73;;
52102;SDS011;38101;53.126;6.878;2023-06-14T01:42:31;4.13;;;2.00;;
52102;SDS011;38101;53.126;6.878;2023-06-14T01:45:02;2.70;;;1.70;;
52102;SDS011;38101;53.126;6.878;2023-06-14T01:47:30;2.70;;;1.90;;
52102;SDS011;38101;53.126;6.878;2023-06-14T01:49:56;3.22;;;1.80;;
52102;SDS011;38101;53.126;6.878;2023-06-14T01:52:21;2.92;;;2.10;;
52102;SDS011;38101;53.126;6.878;2023-06-14T01:54:49;3.00;;;1.80;;
52102;SDS011;38101;53.126;6.878;2023-06-14T01:57:15;3.00;;;1.75;;
52102;SDS011;38101;53.126;6.878;2023-06-14T01:59:41;3.20;;;2.17;;
52102;SDS011;38101;53.126;6.878;2023-06-14T02:02:07;2.63;;;1.80;;
52102;SDS011;38101;53.126;6.878;2023-06-14T02:04:33;3.05;;;1.95;;
52102;SDS011;38101;53.126;6.878;2023-06-14T02:06:59;5.28;;;2.00;;
52102;SDS011;38101;53.126;6.878;2023-06-14T02:09:25;3.83;;;2.30;;
52102;SDS011;38101;53.126;6.878;2023-06-14T02:11:50;3.90;;;2.30;;
52102;SDS011;38101;53.126;6.878;2023-06-14T02:14:16;2.67;;;1.90;;
52102;SDS011;38101;53.126;6.878;2023-06-14T02:16:42;2.85;;;2.20;;
52102;SDS011;38101;53.126;6.878;2023-06-14T02:19:16;3.30;;;2.05;;
52102;SDS011;38101;53.126;6.878;2023-06-14T02:21:43;3.25;;;1.88;;
52102;SDS011;38101;53.126;6.878;2023-06-14T02:24:09;3.88;;;2.17;;
52102;SDS011;38101;53.126;6.878;2023-06-14T02:26:35;2.80;;;2.00;;
52102;SDS011;38101;53.126;6.878;2023-06-14T02:29:03;3.20;;;2.10;;
52102;SDS011;38101;53.126;6.878;2023-06-14T02:31:30;4.18;;;2.17;;
52102;SDS011;38101;53.126;6.878;2023-06-14T02:33:56;4.13;;;1.90;;
52102;SDS011;38101;53.126;6.878;2023-06-14T02:36:22;3.13;;;2.10;;
52102;SDS011;38101;53.126;6.878;2023-06-14T02:38:48;3.63;;;1.95;;
52102;SDS011;38101;53.126;6.878;2023-06-14T02:41:14;4.07;;;2.13;;
52102;SDS011;38101;53.126;6.878;2023-06-14T02:43:39;3.95;;;2.10;;
52102;SDS011;38101;53.126;6.878;2023-06-14T02:46:05;4.25;;;2.20;;
52102;SDS011;38101;53.126;6.878;2023-06-14T02:48:32;3.58;;;2.35;;
52102;SDS011;38101;53.126;6.878;2023-06-14T02:50:57;3.72;;;2.30;;
52102;SDS011;38101;53.126;6.878;2023-06-14T02:53:23;3.35;;;2.30;;
52102;SDS011;38101;53.126;6.878;2023-06-14T02:55:49;3.10;;;2.15;;
52102;SDS011;38101;53.126;6.878;2023-06-14T02:58:15;4.30;;;2.10;;
52102;SDS011;38101;53.126;6.878;2023-06-14T03:00:41;4.80;;;2.40;;
52102;SDS011;38101;53.126;6.878;2023-06-14T03:03:07;3.75;;;2.13;;
52102;SDS011;38101;53.126;6.878;2023-06-14T03:05:40;4.75;;;2.25;;
52102;SDS011;38101;53.126;6.878;2023-06-14T03:08:11;4.05;;;2.63;;
52102;SDS011;38101;53.126;6.878;2023-06-14T03:10:42;4.50;;;2.20;;
52102;SDS011;38101;53.126;6.878;2023-06-14T03:13:08;3.78;;;2.20;;
52102;SDS011;38101;53.126;6.878;2023-06-14T03:15:36;4.13;;;2.28;;
52102;SDS011;38101;53.126;6.878;2023-06-14T03:18:01;4.93;;;2.53;;
52102;SDS011;38101;53.126;6.878;2023-06-14T03:20:28;3.85;;;2.25;;
52102;SDS011;38101;53.126;6.878;2023-06-14T03:22:58;3.17;;;2.20;;
52102;SDS011;38101;53.126;6.878;2023-06-14T03:25:25;4.05;;;2.40;;
52102;SDS011;38101;53.126;6.878;2023-06-14T03:27:51;3.55;;;2.17;;
52102;SDS011;38101;53.126;6.878;2023-06-14T03:30:17;4.93;;;2.33;;
52102;SDS011;38101;53.126;6.878;2023-06-14T03:32:42;5.85;;;2.60;;
52102;SDS011;38101;53.126;6.878;2023-06-14T03:35:08;4.30;;;2.30;;
52102;SDS011;38101;53.126;6.878;2023-06-14T03:37:41;4.95;;;2.38;;
52102;SDS011;38101;53.126;6.878;2023-06-14T03:40:08;2.63;;;2.10;;
52102;SDS011;38101;53.126;6.878;2023-06-14T03:42:34;3.50;;;2.47;;
52102;SDS011;38101;53.126;6.878;2023-06-14T03:44:59;3.55;;;2.33;;
52102;SDS011;38101;53.126;6.878;2023-06-14T03:47:25;4.10;;;2.75;;
52102;SDS011;38101;53.126;6.878;2023-06-14T03:49:52;3.83;;;2.38;;
52102;SDS011;38101;53.126;6.878;2023-06-14T03:52:17;4.47;;;2.60;;
52102;SDS011;38101;53.126;6.878;2023-06-14T03:54:43;3.13;;;2.33;;
52102;SDS011;38101;53.126;6.878;2023-06-14T03:57:09;3.80;;;2.58;;
52102;SDS011;38101;53.126;6.878;2023-06-14T03:59:35;4.68;;;2.40;;
52102;SDS011;38101;53.126;6.878;2023-06-14T04:02:01;3.85;;;2.50;;
52102;SDS011;38101;53.126;6.878;2023-06-14T04:04:27;4.90;;;2.40;;
52102;SDS011;38101;53.126;6.878;2023-06-14T04:06:54;3.70;;;2.60;;
52102;SDS011;38101;53.126;6.878;2023-06-14T04:09:22;3.70;;;2.50;;
52102;SDS011;38101;53.126;6.878;2023-06-14T04:11:50;4.75;;;2.92;;
52102;SDS011;38101;53.126;6.878;2023-06-14T04:14:17;4.63;;;2.70;;
52102;SDS011;38101;53.126;6.878;2023-06-14T04:16:44;4.93;;;2.83;;
52102;SDS011;38101;53.126;6.878;2023-06-14T04:19:11;4.47;;;2.95;;
52102;SDS011;38101;53.126;6.878;2023-06-14T04:21:36;3.70;;;2.75;;
52102;SDS011;38101;53.126;6.878;2023-06-14T04:24:02;5.68;;;3.20;;
52102;SDS011;38101;53.126;6.878;2023-06-14T04:26:28;4.05;;;2.60;;
52102;SDS011;38101;53.126;6.878;2023-06-14T04:28:55;3.25;;;2.38;;
52102;SDS011;38101;53.126;6.878;2023-06-14T04:31:22;5.30;;;2.70;;
52102;SDS011;38101;53.126;6.878;2023-06-14T04:33:50;5.63;;;2.70;;
52102;SDS011;38101;53.126;6.878;2023-06-14T04:36:18;4.53;;;2.60;;
52102;SDS011;38101;53.126;6.878;2023-06-14T04:38:44;4.60;;;2.90;;
52102;SDS011;38101;53.126;6.878;2023-06-14T04:41:11;5.63;;;2.60;;
52102;SDS011;38101;53.126;6.878;2023-06-14T04:43:38;5.50;;;2.53;;
52102;SDS011;38101;53.126;6.878;2023-06-14T04:46:07;4.85;;;2.78;;
52102;SDS011;38101;53.126;6.878;2023-06-14T04:48:36;4.35;;;2.60;;
52102;SDS011;38101;53.126;6.878;2023-06-14T04:51:06;4.88;;;2.55;;
52102;SDS011;38101;53.126;6.878;2023-06-14T04:53:32;6.22;;;3.00;;
52102;SDS011;38101;53.126;6.878;2023-06-14T04:55:59;4.60;;;2.80;;
52102;SDS011;38101;53.126;6.878;2023-06-14T04:58:26;4.55;;;2.90;;
52102;SDS011;38101;53.126;6.878;2023-06-14T05:00:52;6.43;;;2.95;;
52102;SDS011;38101;53.126;6.878;2023-06-14T05:03:18;4.25;;;2.60;;
52102;SDS011;38101;53.126;6.878;2023-06-14T05:05:46;5.47;;;2.75;;
52102;SDS011;38101;53.126;6.878;2023-06-14T05:08:11;4.85;;;2.90;;
52102;SDS011;38101;53.126;6.878;2023-06-14T05:10:37;4.75;;;2.80;;
52102;SDS011;38101;53.126;6.878;2023-06-14T05:13:03;6.65;;;2.60;;
52102;SDS011;38101;53.126;6.878;2023-06-14T05:15:29;5.70;;;2.88;;
52102;SDS011;38101;53.126;6.878;2023-06-14T05:17:55;5.35;;;3.20;;
52102;SDS011;38101;53.126;6.878;2023-06-14T05:20:21;5.07;;;3.20;;
52102;SDS011;38101;53.126;6.878;2023-06-14T05:22:49;5.15;;;3.10;;
52102;SDS011;38101;53.126;6.878;2023-06-14T05:25:17;4.97;;;2.88;;
52102;SDS011;38101;53.126;6.878;2023-06-14T05:27:43;3.83;;;2.85;;
52102;SDS011;38101;53.126;6.878;2023-06-14T05:30:09;4.85;;;2.78;;
52102;SDS011;38101;53.126;6.878;2023-06-14T05:32:35;3.75;;;2.83;;
52102;SDS011;38101;53.126;6.878;2023-06-14T05:35:01;4.28;;;2.83;;
52102;SDS011;38101;53.126;6.878;2023-06-14T05:37:27;3.83;;;2.70;;
52102;SDS011;38101;53.126;6.878;2023-06-14T05:39:52;4.40;;;2.60;;
52102;SDS011;38101;53.126;6.878;2023-06-14T05:42:18;4.30;;;3.00;;
52102;SDS011;38101;53.126;6.878;2023-06-14T05:44:43;4.70;;;2.95;;
52102;SDS011;38101;53.126;6.878;2023-06-14T05:47:09;4.95;;;2.90;;
52102;SDS011;38101;53.126;6.878;2023-06-14T05:49:35;5.15;;;2.90;;
52102;SDS011;38101;53.126;6.878;2023-06-14T05:52:00;4.50;;;3.00;;
52102;SDS011;38101;53.126;6.878;2023-06-14T05:54:26;4.68;;;2.40;;
52102;SDS011;38101;53.126;6.878;2023-06-14T05:56:52;4.47;;;3.17;;
52102;SDS011;38101;53.126;6.878;2023-06-14T05:59:17;4.60;;;3.00;;
52102;SDS011;38101;53.126;6.878;2023-06-14T06:01:43;4.13;;;2.88;;
52102;SDS011;38101;53.126;6.878;2023-06-14T06:04:09;3.35;;;2.40;;
52102;SDS011;38101;53.126;6.878;2023-06-14T06:06:34;3.78;;;2.92;;
52102;SDS011;38101;53.126;6.878;2023-06-14T06:09:00;4.43;;;2.75;;
52102;SDS011;38101;53.126;6.878;2023-06-14T06:11:27;4.85;;;3.17;;
52102;SDS011;38101;53.126;6.878;2023-06-14T06:13:52;6.03;;;2.78;;
52102;SDS011;38101;53.126;6.878;2023-06-14T06:16:18;4.05;;;2.88;;
52102;SDS011;38101;53.126;6.878;2023-06-14T06:18:44;5.20;;;2.80;;
52102;SDS011;38101;53.126;6.878;2023-06-14T06:21:09;7.60;;;3.00;;
52102;SDS011;38101;53.126;6.878;2023-06-14T06:23:35;3.38;;;2.70;;
52102;SDS011;38101;53.126;6.878;2023-06-14T06:26:01;6.65;;;3.00;;
52102;SDS011;38101;53.126;6.878;2023-06-14T06:28:28;4.15;;;2.90;;
52102;SDS011;38101;53.126;6.878;2023-06-14T06:30:53;4.45;;;2.97;;
52102;SDS011;38101;53.126;6.878;2023-06-14T06:33:19;4.47;;;2.80;;
52102;SDS011;38101;53.126;6.878;2023-06-14T06:35:45;4.22;;;2.70;;
52102;SDS011;38101;53.126;6.878;2023-06-14T06:38:10;4.43;;;3.50;;
52102;SDS011;38101;53.126;6.878;2023-06-14T06:40:36;4.55;;;2.70;;
52102;SDS011;38101;53.126;6.878;2023-06-14T06:43:02;4.93;;;3.20;;
52102;SDS011;38101;53.126;6.878;2023-06-14T06:45:28;4.28;;;2.75;;
52102;SDS011;38101;53.126;6.878;2023-06-14T06:47:54;5.30;;;2.92;;
52102;SDS011;38101;53.126;6.878;2023-06-14T06:50:20;4.00;;;2.75;;
52102;SDS011;38101;53.126;6.878;2023-06-14T06:52:48;4.13;;;2.70;;
52102;SDS011;38101;53.126;6.878;2023-06-14T06:55:14;4.40;;;2.90;;
52102;SDS011;38101;53.126;6.878;2023-06-14T06:57:40;3.25;;;2.45;;
52102;SDS011;38101;53.126;6.878;2023-06-14T07:00:06;5.10;;;2.83;;
52102;SDS011;38101;53.126;6.878;2023-06-14T07:02:36;4.88;;;2.83;;
52102;SDS011;38101;53.126;6.878;2023-06-14T07:05:02;3.75;;;2.60;;
52102;SDS011;38101;53.126;6.878;2023-06-14T07:07:28;3.33;;;2.35;;
52102;SDS011;38101;53.126;6.878;2023-06-14T07:09:53;4.43;;;2.63;;
52102;SDS011;38101;53.126;6.878;2023-06-14T07:12:19;4.25;;;2.65;;
52102;SDS011;38101;53.126;6.878;2023-06-14T07:14:44;3.95;;;2.40;;
52102;SDS011;38101;53.126;6.878;2023-06-14T07:17:10;3.80;;;2.30;;
52102;SDS011;38101;53.126;6.878;2023-06-14T07:19:36;3.28;;;2.50;;
52102;SDS011;38101;53.126;6.878;2023-06-14T07:22:02;4.75;;;2.90;;
52102;SDS011;38101;53.126;6.878;2023-06-14T07:24:27;4.40;;;2.60;;
52102;SDS011;38101;53.126;6.878;2023-06-14T07:26:53;4.18;;;2.45;;
52102;SDS011;38101;53.126;6.878;2023-06-14T07:29:20;4.15;;;2.58;;
52102;SDS011;38101;53.126;6.878;2023-06-14T07:31:46;5.25;;;2.70;;
52102;SDS011;38101;53.126;6.878;2023-06-14T07:34:11;5.32;;;2.70;;
52102;SDS011;38101;53.126;6.878;2023-06-14T07:36:37;3.88;;;2.88;;
52102;SDS011;38101;53.126;6.878;2023-06-14T07:39:03;3.75;;;2.35;;
52102;SDS011;38101;53.126;6.878;2023-06-14T07:41:31;5.03;;;2.47;;
52102;SDS011;38101;53.126;6.878;2023-06-14T07:43:56;5.13;;;2.50;;
52102;SDS011;38101;53.126;6.878;2023-06-14T07:46:22;4.25;;;2.78;;
52102;SDS011;38101;53.126;6.878;2023-06-14T07:48:48;4.07;;;2.67;;
52102;SDS011;38101;53.126;6.878;2023-06-14T07:51:13;3.40;;;2.40;;
52102;SDS011;38101;53.126;6.878;2023-06-14T07:53:39;4.40;;;2.67;;
52102;SDS011;38101;53.126;6.878;2023-06-14T07:56:06;3.75;;;2.28;;
52102;SDS011;38101;53.126;6.878;2023-06-14T07:58:31;4.95;;;2.50;;
52102;SDS011;38101;53.126;6.878;2023-06-14T08:00:57;3.92;;;2.47;;
52102;SDS011;38101;53.126;6.878;2023-06-14T08:03:23;4.95;;;2.47;;
52102;SDS011;38101;53.126;6.878;2023-06-14T08:05:49;3.92;;;2.40;;
52102;SDS011;38101;53.126;6.878;2023-06-14T08:08:15;3.20;;;2.30;;
52102;SDS011;38101;53.126;6.878;2023-06-14T08:10:41;3.70;;;2.40;;
52102;SDS011;38101;53.126;6.878;2023-06-14T08:13:07;4.18;;;2.65;;
52102;SDS011;38101;53.126;6.878;2023-06-14T08:15:34;5.07;;;2.63;;
52102;SDS011;38101;53.126;6.878;2023-06-14T08:17:59;3.15;;;2.15;;
52102;SDS011;38101;53.126;6.878;2023-06-14T08:20:26;4.03;;;2.72;;
52102;SDS011;38101;53.126;6.878;2023-06-14T08:22:52;3.85;;;2.50;;
52102;SDS011;38101;53.126;6.878;2023-06-14T08:25:21;4.15;;;2.58;;
52102;SDS011;38101;53.126;6.878;2023-06-14T08:27:47;4.13;;;2.55;;
52102;SDS011;38101;53.126;6.878;2023-06-14T08:30:13;4.00;;;2.78;;
52102;SDS011;38101;53.126;6.878;2023-06-14T08:32:39;3.80;;;2.47;;
52102;SDS011;38101;53.126;6.878;2023-06-14T08:35:05;6.85;;;2.47;;
52102;SDS011;38101;53.126;6.878;2023-06-14T08:37:32;4.78;;;2.67;;
52102;SDS011;38101;53.126;6.878;2023-06-14T08:40:01;6.22;;;2.90;;
52102;SDS011;38101;53.126;6.878;2023-06-14T08:42:30;3.25;;;2.60;;
52102;SDS011;38101;53.126;6.878;2023-06-14T08:44:57;3.80;;;2.40;;
52102;SDS011;38101;53.126;6.878;2023-06-14T08:47:23;4.85;;;3.03;;
52102;SDS011;38101;53.126;6.878;2023-06-14T08:49:51;4.22;;;2.97;;
52102;SDS011;38101;53.126;6.878;2023-06-14T08:52:20;4.20;;;2.72;;
52102;SDS011;38101;53.126;6.878;2023-06-14T08:54:47;3.40;;;2.47;;
52102;SDS011;38101;53.126;6.878;2023-06-14T08:57:13;4.07;;;2.50;;
52102;SDS011;38101;53.126;6.878;2023-06-14T08:59:42;4.75;;;2.60;;
52102;SDS011;38101;53.126;6.878;2023-06-14T09:02:17;3.05;;;2.33;;
52102;SDS011;38101;53.126;6.878;2023-06-14T09:04:44;4.45;;;2.30;;
52102;SDS011;38101;53.126;6.878;2023-06-14T09:07:11;4.60;;;2.58;;
52102;SDS011;38101;53.126;6.878;2023-06-14T09:09:40;4.72;;;2.75;;
52102;SDS011;38101;53.126;6.878;2023-06-14T09:12:10;3.83;;;2.28;;
52102;SDS011;38101;53.126;6.878;2023-06-14T09:14:36;3.08;;;2.38;;
52102;SDS011;38101;53.126;6.878;2023-06-14T09:17:05;4.57;;;2.78;;
52102;SDS011;38101;53.126;6.878;2023-06-14T09:19:31;5.20;;;2.58;;
52102;SDS011;38101;53.126;6.878;2023-06-14T09:21:56;5.90;;;2.60;;
52102;SDS011;38101;53.126;6.878;2023-06-14T09:24:24;3.80;;;2.30;;
52102;SDS011;38101;53.126;6.878;2023-06-14T09:26:51;4.53;;;2.75;;
52102;SDS011;38101;53.126;6.878;2023-06-14T09:29:17;5.57;;;2.65;;
52102;SDS011;38101;53.126;6.878;2023-06-14T09:31:47;3.85;;;2.42;;
52102;SDS011;38101;53.126;6.878;2023-06-14T09:34:13;4.53;;;2.40;;
52102;SDS011;38101;53.126;6.878;2023-06-14T09:36:39;3.83;;;2.55;;
52102;SDS011;38101;53.126;6.878;2023-06-14T09:39:07;5.40;;;2.83;;
52102;SDS011;38101;53.126;6.878;2023-06-14T09:41:37;3.92;;;2.40;;
52102;SDS011;38101;53.126;6.878;2023-06-14T09:44:08;6.00;;;2.33;;
52102;SDS011;38101;53.126;6.878;2023-06-14T09:46:35;4.78;;;2.30;;
52102;SDS011;38101;53.126;6.878;2023-06-14T09:49:01;4.20;;;2.35;;
52102;SDS011;38101;53.126;6.878;2023-06-14T09:51:28;4.15;;;2.53;;
52102;SDS011;38101;53.126;6.878;2023-06-14T09:54:01;6.43;;;2.10;;
52102;SDS011;38101;53.126;6.878;2023-06-14T09:59:02;2.88;;;2.15;;
52102;SDS011;38101;53.126;6.878;2023-06-14T10:01:30;6.68;;;2.65;;
52102;SDS011;38101;53.126;6.878;2023-06-14T10:04:04;3.88;;;2.42;;
52102;SDS011;38101;53.126;6.878;2023-06-14T10:06:31;3.60;;;2.40;;
52102;SDS011;38101;53.126;6.878;2023-06-14T10:08:58;4.85;;;2.22;;
52102;SDS011;38101;53.126;6.878;2023-06-14T10:11:25;4.65;;;2.22;;
52102;SDS011;38101;53.126;6.878;2023-06-14T10:13:52;3.28;;;2.05;;
52102;SDS011;38101;53.126;6.878;2023-06-14T10:19:25;4.30;;;2.20;;
52102;SDS011;38101;53.126;6.878;2023-06-14T10:22:16;2.10;;;1.80;;
52102;SDS011;38101;53.126;6.878;2023-06-14T10:25:06;3.38;;;2.20;;
52102;SDS011;38101;53.126;6.878;2023-06-14T10:27:38;5.45;;;2.50;;
52102;SDS011;38101;53.126;6.878;2023-06-14T10:30:07;4.53;;;2.50;;
52102;SDS011;38101;53.126;6.878;2023-06-14T10:32:33;4.72;;;2.47;;
52102;SDS011;38101;53.126;6.878;2023-06-14T10:35:05;4.03;;;2.50;;
52102;SDS011;38101;53.126;6.878;2023-06-14T10:37:32;3.33;;;2.20;;
52102;SDS011;38101;53.126;6.878;2023-06-14T10:39:58;3.45;;;2.22;;
52102;SDS011;38101;53.126;6.878;2023-06-14T10:42:28;6.97;;;2.78;;
52102;SDS011;38101;53.126;6.878;2023-06-14T10:44:57;3.85;;;2.47;;
52102;SDS011;38101;53.126;6.878;2023-06-14T10:47:27;3.25;;;2.15;;
52102;SDS011;38101;53.126;6.878;2023-06-14T10:52:38;3.60;;;2.33;;
52102;SDS011;38101;53.126;6.878;2023-06-14T10:57:33;4.43;;;2.15;;
52102;SDS011;38101;53.126;6.878;2023-06-14T11:00:00;4.90;;;2.40;;
52102;SDS011;38101;53.126;6.878;2023-06-14T11:11:06;3.00;;;2.10;;
52102;SDS011;38101;53.126;6.878;2023-06-14T11:13:39;3.28;;;1.80;;
52102;SDS011;38101;53.126;6.878;2023-06-14T11:16:10;2.95;;;1.90;;
52102;SDS011;38101;53.126;6.878;2023-06-14T11:18:38;3.25;;;2.05;;
52102;SDS011;38101;53.126;6.878;2023-06-14T11:21:04;2.90;;;2.08;;
52102;SDS011;38101;53.126;6.878;2023-06-14T11:23:29;2.97;;;2.13;;
52102;SDS011;38101;53.126;6.878;2023-06-14T11:25:55;2.97;;;2.00;;
52102;SDS011;38101;53.126;6.878;2023-06-14T11:28:21;3.78;;;2.00;;
52102;SDS011;38101;53.126;6.878;2023-06-14T11:30:48;2.53;;;1.88;;
52102;SDS011;38101;53.126;6.878;2023-06-14T11:33:34;3.63;;;1.70;;
52102;SDS011;38101;53.126;6.878;2023-06-14T11:36:03;3.10;;;1.90;;
52102;SDS011;38101;53.126;6.878;2023-06-14T11:38:36;4.53;;;1.60;;
52102;SDS011;38101;53.126;6.878;2023-06-14T11:41:02;3.42;;;2.13;;
52102;SDS011;38101;53.126;6.878;2023-06-14T11:43:28;2.30;;;1.80;;
52102;SDS011;38101;53.126;6.878;2023-06-14T11:45:56;3.70;;;2.20;;
52102;SDS011;38101;53.126;6.878;2023-06-14T11:48:22;4.78;;;2.00;;
52102;SDS011;38101;53.126;6.878;2023-06-14T11:50:49;3.03;;;2.20;;
52102;SDS011;38101;53.126;6.878;2023-06-14T11:53:16;2.55;;;2.10;;
52102;SDS011;38101;53.126;6.878;2023-06-14T11:55:42;6.97;;;2.38;;
52102;SDS011;38101;53.126;6.878;2023-06-14T11:58:10;4.03;;;1.80;;
52102;SDS011;38101;53.126;6.878;2023-06-14T12:00:35;4.30;;;1.95;;
52102;SDS011;38101;53.126;6.878;2023-06-14T12:03:02;3.45;;;2.20;;
52102;SDS011;38101;53.126;6.878;2023-06-14T12:05:28;3.10;;;2.08;;
52102;SDS011;38101;53.126;6.878;2023-06-14T12:07:58;2.38;;;2.05;;
52102;SDS011;38101;53.126;6.878;2023-06-14T12:12:57;2.72;;;1.85;;
52102;SDS011;38101;53.126;6.878;2023-06-14T12:15:24;5.90;;;2.20;;
52102;SDS011;38101;53.126;6.878;2023-06-14T12:17:53;3.03;;;1.90;;
52102;SDS011;38101;53.126;6.878;2023-06-14T12:20:19;2.35;;;1.80;;
52102;SDS011;38101;53.126;6.878;2023-06-14T12:22:53;3.25;;;2.03;;
52102;SDS011;38101;53.126;6.878;2023-06-14T12:28:07;4.22;;;2.28;;
52102;SDS011;38101;53.126;6.878;2023-06-14T12:30:35;3.55;;;2.05;;
52102;SDS011;38101;53.126;6.878;2023-06-14T12:33:01;5.35;;;2.30;;
52102;SDS011;38101;53.126;6.878;2023-06-14T12:35:28;4.03;;;2.10;;
52102;SDS011;38101;53.126;6.878;2023-06-14T12:37:54;3.25;;;2.25;;
52102;SDS011;38101;53.126;6.878;2023-06-14T12:40:19;4.50;;;2.35;;
52102;SDS011;38101;53.126;6.878;2023-06-14T12:42:45;3.65;;;2.05;;
52102;SDS011;38101;53.126;6.878;2023-06-14T12:45:13;3.80;;;2.10;;
52102;SDS011;38101;53.126;6.878;2023-06-14T12:47:39;3.15;;;2.17;;
52102;SDS011;38101;53.126;6.878;2023-06-14T12:50:05;4.82;;;2.20;;
52102;SDS011;38101;53.126;6.878;2023-06-14T12:52:32;2.30;;;1.95;;
52102;SDS011;38101;53.126;6.878;2023-06-14T12:55:01;2.97;;;2.00;;
52102;SDS011;38101;53.126;6.878;2023-06-14T12:57:28;3.05;;;2.20;;
52102;SDS011;38101;53.126;6.878;2023-06-14T12:59:54;2.95;;;2.00;;
52102;SDS011;38101;53.126;6.878;2023-06-14T13:02:20;4.82;;;1.95;;
52102;SDS011;38101;53.126;6.878;2023-06-14T13:04:47;5.50;;;2.60;;
52102;SDS011;38101;53.126;6.878;2023-06-14T13:07:13;3.70;;;2.30;;
52102;SDS011;38101;53.126;6.878;2023-06-14T13:09:40;4.60;;;2.40;;
52102;SDS011;38101;53.126;6.878;2023-06-14T13:12:06;4.90;;;2.20;;
52102;SDS011;38101;53.126;6.878;2023-06-14T13:14:32;3.00;;;2.15;;
52102;SDS011;38101;53.126;6.878;2023-06-14T13:16:58;3.05;;;2.20;;
52102;SDS011;38101;53.126;6.878;2023-06-14T13:19:24;3.35;;;2.35;;
52102;SDS011;38101;53.126;6.878;2023-06-14T13:21:50;3.28;;;2.50;;
52102;SDS011;38101;53.126;6.878;2023-06-14T13:24:15;3.20;;;2.15;;
52102;SDS011;38101;53.126;6.878;2023-06-14T13:26:41;3.22;;;2.13;;
52102;SDS011;38101;53.126;6.878;2023-06-14T13:29:07;3.45;;;2.03;;
52102;SDS011;38101;53.126;6.878;2023-06-14T13:31:33;3.10;;;2.30;;
52102;SDS011;38101;53.126;6.878;2023-06-14T13:33:58;3.33;;;2.28;;
52102;SDS011;38101;53.126;6.878;2023-06-14T13:36:24;3.10;;;2.45;;
52102;SDS011;38101;53.126;6.878;2023-06-14T13:38:50;4.10;;;2.35;;
52102;SDS011;38101;53.126;6.878;2023-06-14T13:41:17;2.75;;;2.00;;
52102;SDS011;38101;53.126;6.878;2023-06-14T13:43:43;3.78;;;2.20;;
52102;SDS011;38101;53.126;6.878;2023-06-14T13:46:09;2.70;;;2.17;;
52102;SDS011;38101;53.126;6.878;2023-06-14T13:48:34;3.90;;;2.30;;
52102;SDS011;38101;53.126;6.878;2023-06-14T13:51:00;3.47;;;2.33;;
52102;SDS011;38101;53.126;6.878;2023-06-14T13:53:26;6.47;;;2.50;;
52102;SDS011;38101;53.126;6.878;2023-06-14T13:55:52;3.05;;;1.92;;
52102;SDS011;38101;53.126;6.878;2023-06-14T13:58:18;2.80;;;2.10;;
52102;SDS011;38101;53.126;6.878;2023-06-14T14:00:44;3.92;;;2.42;;
52102;SDS011;38101;53.126;6.878;2023-06-14T14:03:10;3.03;;;2.05;;
52102;SDS011;38101;53.126;6.878;2023-06-14T14:05:36;3.10;;;2.00;;
52102;SDS011;38101;53.126;6.878;2023-06-14T14:08:02;2.22;;;1.90;;
52102;SDS011;38101;53.126;6.878;2023-06-14T14:10:29;3.00;;;2.25;;
52102;SDS011;38101;53.126;6.878;2023-06-14T14:12:54;3.67;;;2.60;;
52102;SDS011;38101;53.126;6.878;2023-06-14T14:15:20;4.35;;;2.50;;
52102;SDS011;38101;53.126;6.878;2023-06-14T14:17:46;5.13;;;2.40;;
52102;SDS011;38101;53.126;6.878;2023-06-14T14:20:12;4.47;;;2.58;;
52102;SDS011;38101;53.126;6.878;2023-06-14T14:22:40;3.15;;;2.10;;
52102;SDS011;38101;53.126;6.878;2023-06-14T14:25:07;2.95;;;2.20;;
52102;SDS011;38101;53.126;6.878;2023-06-14T14:27:33;2.83;;;2.08;;
52102;SDS011;38101;53.126;6.878;2023-06-14T14:29:59;2.83;;;2.05;;
52102;SDS011;38101;53.126;6.878;2023-06-14T14:32:25;2.70;;;2.10;;
52102;SDS011;38101;53.126;6.878;2023-06-14T14:34:50;4.53;;;2.35;;
52102;SDS011;38101;53.126;6.878;2023-06-14T14:37:16;3.40;;;2.40;;
52102;SDS011;38101;53.126;6.878;2023-06-14T14:39:44;3.58;;;2.20;;
52102;SDS011;38101;53.126;6.878;2023-06-14T14:42:10;4.15;;;2.60;;
52102;SDS011;38101;53.126;6.878;2023-06-14T14:44:37;2.95;;;2.20;;
52102;SDS011;38101;53.126;6.878;2023-06-14T14:47:04;3.20;;;2.30;;
52102;SDS011;38101;53.126;6.878;2023-06-14T14:49:33;3.90;;;2.60;;
52102;SDS011;38101;53.126;6.878;2023-06-14T14:51:59;3.08;;;2.45;;
52102;SDS011;38101;53.126;6.878;2023-06-14T14:54:25;2.97;;;2.33;;
52102;SDS011;38101;53.126;6.878;2023-06-14T14:56:51;6.30;;;2.50;;
52102;SDS011;38101;53.126;6.878;2023-06-14T14:59:17;4.03;;;2.10;;
52102;SDS011;38101;53.126;6.878;2023-06-14T15:01:43;4.50;;;2.40;;
52102;SDS011;38101;53.126;6.878;2023-06-14T15:04:10;3.63;;;2.55;;
52102;SDS011;38101;53.126;6.878;2023-06-14T15:06:36;5.03;;;2.58;;
52102;SDS011;38101;53.126;6.878;2023-06-14T15:09:03;3.58;;;2.40;;
52102;SDS011;38101;53.126;6.878;2023-06-14T15:11:28;4.82;;;2.50;;
52102;SDS011;38101;53.126;6.878;2023-06-14T15:13:54;5.80;;;2.75;;